sensor_id;sensor_type;location;lat;lon;timestamp;pressure;altitude;pressure_sealevel;temperature;humidity
29879;BME280;16752;53.364;-1.488;2023-08-07T00:01:08;100702.66;;;20.97;45.40
29879;BME280;16752;53.364;-1.488;2023-08-07T00:03:53;100688.50;;;20.97;45.44
29879;BME280;16752;53.364;-1.488;2023-08-07T00:07:01;100675.66;;;20.84;45.58
29879;BME280;16752;53.364;-1.488;2023-08-07T00:09:51;100630.41;;;20.58;45.04
29879;BME280;16752;53.364;-1.488;2023-08-07T00:12:48;100688.75;;;20.78;45.63
29879;BME280;16752;53.364;-1.488;2023-08-07T00:15:37;100687.06;;;20.68;45.72
29879;BME280;16752;53.364;-1.488;2023-08-07T00:18:44;100742.13;;;21.02;45.55
29879;BME280;16752;53.364;-1.488;2023-08-07T00:21:33;100743.97;;;21.01;45.53
29879;BME280;16752;53.364;-1.488;2023-08-07T00:24:19;100646.38;;;20.32;45.76
29879;BME280;16752;53.364;-1.488;2023-08-07T00:27:10;100588.84;;;20.05;45.54
29879;BME280;16752;53.364;-1.488;2023-08-07T00:29:56;100706.31;;;20.62;45.61
29879;BME280;16752;53.364;-1.488;2023-08-07T00:32:41;100583.50;;;19.97;45.82
29879;BME280;16752;53.364;-1.488;2023-08-07T00:35:27;100734.41;;;20.83;45.49
29879;BME280;16752;53.364;-1.488;2023-08-07T00:38:14;100676.63;;;20.49;45.56
29879;BME280;16752;53.364;-1.488;2023-08-07T00:41:02;100733.31;;;20.67;45.89
29879;BME280;16752;53.364;-1.488;2023-08-07T00:46:41;100571.31;;;19.69;46.35
29879;BME280;16752;53.364;-1.488;2023-08-07T00:49:31;100573.22;;;19.76;45.80
29879;BME280;16752;53.364;-1.488;2023-08-07T00:52:16;100728.63;;;20.61;46.27
29879;BME280;16752;53.364;-1.488;2023-08-07T00:55:00;100716.59;;;20.57;46.02
29879;BME280;16752;53.364;-1.488;2023-08-07T00:57:47;100718.38;;;20.49;46.01
29879;BME280;16752;53.364;-1.488;2023-08-07T01:00:35;100705.94;;;20.57;45.67
29879;BME280;16752;53.364;-1.488;2023-08-07T01:03:20;100583.38;;;19.45;46.80
29879;BME280;16752;53.364;-1.488;2023-08-07T01:06:04;100716.53;;;20.49;46.05
29879;BME280;16752;53.364;-1.488;2023-08-07T01:08:49;100712.91;;;20.50;46.16
29879;BME280;16752;53.364;-1.488;2023-08-07T01:12:19;100583.59;;;19.70;45.95
29879;BME280;16752;53.364;-1.488;2023-08-07T01:15:12;100599.47;;;19.79;46.27
29879;BME280;16752;53.364;-1.488;2023-08-07T01:17:58;100598.28;;;19.74;46.19
29879;BME280;16752;53.364;-1.488;2023-08-07T01:20:44;100604.81;;;19.62;46.55
29879;BME280;16752;53.364;-1.488;2023-08-07T01:23:28;100505.13;;;19.22;46.53
29879;BME280;16752;53.364;-1.488;2023-08-07T01:26:12;100623.00;;;19.92;46.08
29879;BME280;16752;53.364;-1.488;2023-08-07T01:29:25;100554.75;;;19.39;46.99
29879;BME280;16752;53.364;-1.488;2023-08-07T01:32:14;100699.81;;;20.39;46.24
29879;BME280;16752;53.364;-1.488;2023-08-07T01:35:02;100554.78;;;19.57;46.28
29879;BME280;16752;53.364;-1.488;2023-08-07T01:37:48;100648.03;;;20.07;46.50
29879;BME280;16752;53.364;-1.488;2023-08-07T01:40:36;100663.38;;;20.13;46.41
29879;BME280;16752;53.364;-1.488;2023-08-07T01:43:21;100690.09;;;20.30;46.66
29879;BME280;16752;53.364;-1.488;2023-08-07T01:46:05;100595.06;;;19.52;46.83
29879;BME280;16752;53.364;-1.488;2023-08-07T01:48:50;100567.91;;;19.41;47.01
29879;BME280;16752;53.364;-1.488;2023-08-07T01:51:34;100556.81;;;19.45;46.67
29879;BME280;16752;53.364;-1.488;2023-08-07T01:54:18;100686.13;;;20.34;46.59
29879;BME280;16752;53.364;-1.488;2023-08-07T01:57:03;100633.53;;;20.02;46.58
29879;BME280;16752;53.364;-1.488;2023-08-07T01:59:47;100639.50;;;19.96;46.57
29879;BME280;16752;53.364;-1.488;2023-08-07T02:02:31;100599.41;;;19.71;46.10
29879;BME280;16752;53.364;-1.488;2023-08-07T02:05:16;100631.75;;;19.84;46.83
29879;BME280;16752;53.364;-1.488;2023-08-07T02:08:00;100597.72;;;19.35;46.88
29879;BME280;16752;53.364;-1.488;2023-08-07T02:10:44;100605.66;;;19.62;46.70
29879;BME280;16752;53.364;-1.488;2023-08-07T02:13:28;100631.22;;;19.81;47.07
29879;BME280;16752;53.364;-1.488;2023-08-07T02:16:12;100594.50;;;19.59;46.52
29879;BME280;16752;53.364;-1.488;2023-08-07T02:18:57;100642.44;;;19.93;46.85
29879;BME280;16752;53.364;-1.488;2023-08-07T02:21:41;100617.84;;;19.73;47.29
29879;BME280;16752;53.364;-1.488;2023-08-07T02:24:25;100649.25;;;19.95;46.47
29879;BME280;16752;53.364;-1.488;2023-08-07T02:27:09;100620.06;;;19.77;46.72
29879;BME280;16752;53.364;-1.488;2023-08-07T02:29:53;100695.53;;;20.20;46.70
29879;BME280;16752;53.364;-1.488;2023-08-07T02:32:38;100693.03;;;20.19;46.95
29879;BME280;16752;53.364;-1.488;2023-08-07T02:35:21;100590.31;;;19.56;46.86
29879;BME280;16752;53.364;-1.488;2023-08-07T02:38:06;100627.06;;;19.78;46.89
29879;BME280;16752;53.364;-1.488;2023-08-07T02:40:50;100636.75;;;19.70;46.92
29879;BME280;16752;53.364;-1.488;2023-08-07T02:43:34;100621.06;;;19.59;47.06
29879;BME280;16752;53.364;-1.488;2023-08-07T02:46:18;100680.66;;;19.92;47.17
29879;BME280;16752;53.364;-1.488;2023-08-07T02:49:02;100694.41;;;20.05;47.30
29879;BME280;16752;53.364;-1.488;2023-08-07T02:51:45;100586.56;;;19.49;46.66
29879;BME280;16752;53.364;-1.488;2023-08-07T02:54:29;100561.84;;;19.13;47.13
29879;BME280;16752;53.364;-1.488;2023-08-07T02:57:13;100542.56;;;19.11;47.26
29879;BME280;16752;53.364;-1.488;2023-08-07T02:59:57;100613.78;;;19.61;47.01
29879;BME280;16752;53.364;-1.488;2023-08-07T03:02:41;100528.00;;;19.15;47.15
29879;BME280;16752;53.364;-1.488;2023-08-07T03:05:26;100619.25;;;19.77;47.01
29879;BME280;16752;53.364;-1.488;2023-08-07T03:08:19;100591.03;;;19.13;47.96
29879;BME280;16752;53.364;-1.488;2023-08-07T03:11:03;100688.81;;;19.55;48.90
29879;BME280;16752;53.364;-1.488;2023-08-07T03:13:47;100624.63;;;19.67;47.80
29879;BME280;16752;53.364;-1.488;2023-08-07T03:16:42;100581.16;;;19.23;47.59
29879;BME280;16752;53.364;-1.488;2023-08-07T03:19:44;100522.88;;;18.68;48.38
29879;BME280;16752;53.364;-1.488;2023-08-07T03:22:28;100583.97;;;19.04;49.59
29879;BME280;16752;53.364;-1.488;2023-08-07T03:25:12;100593.16;;;19.45;48.98
29879;BME280;16752;53.364;-1.488;2023-08-07T03:27:56;100682.47;;;20.35;48.03
29879;BME280;16752;53.364;-1.488;2023-08-07T03:30:40;100579.97;;;19.53;48.68
29879;BME280;16752;53.364;-1.488;2023-08-07T03:33:25;100605.94;;;19.41;48.94
29879;BME280;16752;53.364;-1.488;2023-08-07T03:36:09;100544.50;;;19.44;48.48
29879;BME280;16752;53.364;-1.488;2023-08-07T03:38:53;100612.66;;;19.89;48.71
29879;BME280;16752;53.364;-1.488;2023-08-07T03:41:37;100554.31;;;19.88;47.91
29879;BME280;16752;53.364;-1.488;2023-08-07T03:44:21;100628.38;;;20.44;47.15
29879;BME280;16752;53.364;-1.488;2023-08-07T03:47:05;100619.78;;;20.58;46.58
29879;BME280;16752;53.364;-1.488;2023-08-07T03:49:49;100649.66;;;20.44;47.17
29879;BME280;16752;53.364;-1.488;2023-08-07T03:52:33;100622.22;;;20.43;47.18
29879;BME280;16752;53.364;-1.488;2023-08-07T03:55:17;100581.22;;;20.36;46.49
29879;BME280;16752;53.364;-1.488;2023-08-07T03:58:02;100625.41;;;20.55;46.63
29879;BME280;16752;53.364;-1.488;2023-08-07T04:00:51;100673.84;;;20.59;47.33
29879;BME280;16752;53.364;-1.488;2023-08-07T04:03:38;100622.47;;;20.14;47.74
29879;BME280;16752;53.364;-1.488;2023-08-07T04:06:22;100550.38;;;20.18;46.54
29879;BME280;16752;53.364;-1.488;2023-08-07T04:09:06;100629.91;;;20.55;47.01
29879;BME280;16752;53.364;-1.488;2023-08-07T04:11:55;100607.78;;;20.54;46.25
29879;BME280;16752;53.364;-1.488;2023-08-07T04:14:39;100668.50;;;20.59;46.90
29879;BME280;16752;53.364;-1.488;2023-08-07T04:17:23;100539.88;;;19.64;47.86
29879;BME280;16752;53.364;-1.488;2023-08-07T04:20:07;100639.19;;;20.25;47.46
29879;BME280;16752;53.364;-1.488;2023-08-07T04:22:52;100624.22;;;20.50;46.50
29879;BME280;16752;53.364;-1.488;2023-08-07T04:25:36;100676.97;;;20.54;46.91
29879;BME280;16752;53.364;-1.488;2023-08-07T04:28:23;100640.22;;;20.32;46.84
29879;BME280;16752;53.364;-1.488;2023-08-07T04:31:07;100565.88;;;20.30;46.34
29879;BME280;16752;53.364;-1.488;2023-08-07T04:33:52;100681.25;;;21.07;45.88
29879;BME280;16752;53.364;-1.488;2023-08-07T04:36:36;100559.50;;;20.41;45.84
29879;BME280;16752;53.364;-1.488;2023-08-07T04:39:20;100709.56;;;21.08;45.94
29879;BME280;16752;53.364;-1.488;2023-08-07T04:42:05;100643.53;;;20.86;45.76
29879;BME280;16752;53.364;-1.488;2023-08-07T04:44:49;100617.13;;;20.32;46.28
29879;BME280;16752;53.364;-1.488;2023-08-07T04:47:34;100614.19;;;20.69;45.77
29879;BME280;16752;53.364;-1.488;2023-08-07T04:50:18;100617.09;;;20.58;45.70
29879;BME280;16752;53.364;-1.488;2023-08-07T04:53:02;100603.59;;;20.43;46.39
29879;BME280;16752;53.364;-1.488;2023-08-07T04:55:46;100519.38;;;20.08;45.70
29879;BME280;16752;53.364;-1.488;2023-08-07T04:58:30;100589.72;;;20.14;46.62
29879;BME280;16752;53.364;-1.488;2023-08-07T05:01:17;100576.38;;;20.32;45.61
29879;BME280;16752;53.364;-1.488;2023-08-07T05:04:02;100612.84;;;20.73;45.43
29879;BME280;16752;53.364;-1.488;2023-08-07T05:07:07;100495.25;;;20.02;45.51
29879;BME280;16752;53.364;-1.488;2023-08-07T05:09:51;100649.56;;;20.96;45.23
29879;BME280;16752;53.364;-1.488;2023-08-07T05:12:36;100613.97;;;20.37;46.89
29879;BME280;16752;53.364;-1.488;2023-08-07T05:15:22;100549.78;;;20.06;46.33
29879;BME280;16752;53.364;-1.488;2023-08-07T05:18:06;100565.72;;;20.32;45.57
29879;BME280;16752;53.364;-1.488;2023-08-07T05:20:50;100604.53;;;20.68;45.23
29879;BME280;16752;53.364;-1.488;2023-08-07T05:23:34;100514.81;;;19.49;46.34
29879;BME280;16752;53.364;-1.488;2023-08-07T05:26:21;100561.88;;;20.26;45.52
29879;BME280;16752;53.364;-1.488;2023-08-07T05:29:06;100575.84;;;20.54;45.32
29879;BME280;16752;53.364;-1.488;2023-08-07T05:31:51;100675.25;;;21.05;45.01
29879;BME280;16752;53.364;-1.488;2023-08-07T05:34:36;100582.75;;;20.39;45.32
29879;BME280;16752;53.364;-1.488;2023-08-07T05:37:21;100538.88;;;19.91;45.37
29879;BME280;16752;53.364;-1.488;2023-08-07T05:40:05;100619.09;;;20.56;45.38
29879;BME280;16752;53.364;-1.488;2023-08-07T05:42:53;100555.72;;;20.26;44.80
29879;BME280;16752;53.364;-1.488;2023-08-07T05:45:40;100594.31;;;20.30;45.05
29879;BME280;16752;53.364;-1.488;2023-08-07T05:48:24;100631.22;;;20.85;44.42
29879;BME280;16752;53.364;-1.488;2023-08-07T05:51:08;100601.09;;;20.42;45.25
29879;BME280;16752;53.364;-1.488;2023-08-07T05:53:52;100533.94;;;20.22;44.66
29879;BME280;16752;53.364;-1.488;2023-08-07T05:56:37;100636.63;;;21.09;43.72
29879;BME280;16752;53.364;-1.488;2023-08-07T05:59:22;100608.63;;;20.29;44.63
29879;BME280;16752;53.364;-1.488;2023-08-07T06:02:06;100545.41;;;20.57;43.71
29879;BME280;16752;53.364;-1.488;2023-08-07T06:04:50;100600.63;;;20.97;43.76
29879;BME280;16752;53.364;-1.488;2023-08-07T06:07:34;100607.66;;;21.06;43.09
29879;BME280;16752;53.364;-1.488;2023-08-07T06:10:18;100596.47;;;20.60;44.36
29879;BME280;16752;53.364;-1.488;2023-08-07T06:13:03;100607.00;;;21.12;43.43
29879;BME280;16752;53.364;-1.488;2023-08-07T06:15:47;100610.31;;;21.06;43.14
29879;BME280;16752;53.364;-1.488;2023-08-07T06:18:35;100609.34;;;20.65;44.33
29879;BME280;16752;53.364;-1.488;2023-08-07T06:21:20;100545.84;;;20.86;42.96
29879;BME280;16752;53.364;-1.488;2023-08-07T06:24:04;100535.03;;;20.96;42.71
29879;BME280;16752;53.364;-1.488;2023-08-07T06:26:49;100656.25;;;21.75;42.46
29879;BME280;16752;53.364;-1.488;2023-08-07T06:29:34;100603.19;;;21.23;43.09
29879;BME280;16752;53.364;-1.488;2023-08-07T06:32:17;100557.22;;;21.13;43.20
29879;BME280;16752;53.364;-1.488;2023-08-07T06:35:03;100599.53;;;21.24;43.02
29879;BME280;16752;53.364;-1.488;2023-08-07T06:37:48;100674.44;;;21.79;42.86
29879;BME280;16752;53.364;-1.488;2023-08-07T06:40:36;100698.44;;;22.04;42.69
29879;BME280;16752;53.364;-1.488;2023-08-07T06:43:20;100698.13;;;22.07;42.36
29879;BME280;16752;53.364;-1.488;2023-08-07T06:46:05;100587.91;;;21.65;42.18
29879;BME280;16752;53.364;-1.488;2023-08-07T06:48:49;100603.56;;;21.69;41.76
29879;BME280;16752;53.364;-1.488;2023-08-07T06:51:33;100611.75;;;21.83;41.64
29879;BME280;16752;53.364;-1.488;2023-08-07T06:54:20;100529.97;;;20.68;42.07
29879;BME280;16752;53.364;-1.488;2023-08-07T06:57:13;100571.69;;;21.10;41.84
29879;BME280;16752;53.364;-1.488;2023-08-07T07:06:13;100664.44;;;22.38;40.61
29879;BME280;16752;53.364;-1.488;2023-08-07T07:15:31;100596.75;;;22.07;39.73
29879;BME280;16752;53.364;-1.488;2023-08-07T07:18:39;100581.38;;;22.25;39.30
29879;BME280;16752;53.364;-1.488;2023-08-07T07:21:25;100727.25;;;23.29;39.19
29879;BME280;16752;53.364;-1.488;2023-08-07T07:27:02;100732.97;;;23.65;38.33
29879;BME280;16752;53.364;-1.488;2023-08-07T07:32:31;100643.44;;;23.22;38.33
29879;BME280;16752;53.364;-1.488;2023-08-07T07:35:15;100593.19;;;22.86;38.20
29879;BME280;16752;53.364;-1.488;2023-08-07T07:38:02;100596.09;;;23.30;37.51
29879;BME280;16752;53.364;-1.488;2023-08-07T07:40:53;100573.31;;;22.33;38.80
29879;BME280;16752;53.364;-1.488;2023-08-07T07:43:43;100667.41;;;23.07;38.33
29879;BME280;16752;53.364;-1.488;2023-08-07T07:46:46;100590.28;;;22.56;38.04
29879;BME280;16752;53.364;-1.488;2023-08-07T07:49:30;100613.97;;;22.99;37.70
29879;BME280;16752;53.364;-1.488;2023-08-07T07:52:23;100679.59;;;23.63;37.88
29879;BME280;16752;53.364;-1.488;2023-08-07T07:58:04;100627.72;;;22.88;38.36
29879;BME280;16752;53.364;-1.488;2023-08-07T08:01:05;100583.72;;;23.52;37.21
29879;BME280;16752;53.364;-1.488;2023-08-07T08:03:50;100655.78;;;23.76;37.59
29879;BME280;16752;53.364;-1.488;2023-08-07T08:06:35;100701.84;;;24.10;36.99
29879;BME280;16752;53.364;-1.488;2023-08-07T08:09:20;100704.16;;;24.50;36.28
29879;BME280;16752;53.364;-1.488;2023-08-07T08:12:04;100595.25;;;24.28;35.63
29879;BME280;16752;53.364;-1.488;2023-08-07T08:14:55;100678.28;;;24.43;35.94
29879;BME280;16752;53.364;-1.488;2023-08-07T08:17:45;100719.16;;;24.89;35.75
29879;BME280;16752;53.364;-1.488;2023-08-07T08:20:29;100581.69;;;23.54;36.02
29879;BME280;16752;53.364;-1.488;2023-08-07T08:23:15;100672.25;;;23.65;36.57
29879;BME280;16752;53.364;-1.488;2023-08-07T08:26:00;100633.34;;;23.32;36.92
29879;BME280;16752;53.364;-1.488;2023-08-07T08:28:55;100714.88;;;23.90;37.35
29879;BME280;16752;53.364;-1.488;2023-08-07T08:31:39;100686.97;;;24.45;36.32
29879;BME280;16752;53.364;-1.488;2023-08-07T08:34:25;100691.94;;;23.72;37.51
29879;BME280;16752;53.364;-1.488;2023-08-07T08:37:09;100649.94;;;23.96;36.17
29879;BME280;16752;53.364;-1.488;2023-08-07T08:45:46;100611.19;;;23.46;35.94
29879;BME280;16752;53.364;-1.488;2023-08-07T08:48:34;100667.16;;;24.54;35.05
29879;BME280;16752;53.364;-1.488;2023-08-07T08:51:20;100624.94;;;24.56;34.70
29879;BME280;16752;53.364;-1.488;2023-08-07T08:54:11;100694.41;;;25.02;33.45
29879;BME280;16752;53.364;-1.488;2023-08-07T08:59:45;100591.47;;;23.70;34.39
29879;BME280;16752;53.364;-1.488;2023-08-07T09:02:33;100724.78;;;24.04;34.90
29879;BME280;16752;53.364;-1.488;2023-08-07T09:05:21;100574.78;;;23.45;34.28
29879;BME280;16752;53.364;-1.488;2023-08-07T09:08:07;100590.22;;;23.95;34.02
29879;BME280;16752;53.364;-1.488;2023-08-07T09:10:52;100693.09;;;24.16;34.03
29879;BME280;16752;53.364;-1.488;2023-08-07T09:13:40;100619.06;;;23.70;34.00
29879;BME280;16752;53.364;-1.488;2023-08-07T09:16:27;100654.19;;;24.72;34.32
29879;BME280;16752;53.364;-1.488;2023-08-07T09:19:15;100649.28;;;25.20;33.43
29879;BME280;16752;53.364;-1.488;2023-08-07T09:28:34;100557.72;;;25.23;31.86
29879;BME280;16752;53.364;-1.488;2023-08-07T09:31:25;100695.00;;;26.12;32.35
29879;BME280;16752;53.364;-1.488;2023-08-07T09:36:52;100689.94;;;25.81;32.69
29879;BME280;16752;53.364;-1.488;2023-08-07T09:43:37;100617.41;;;25.32;33.00
29879;BME280;16752;53.364;-1.488;2023-08-07T09:46:22;100610.59;;;25.50;33.27
29879;BME280;16752;53.364;-1.488;2023-08-07T09:49:09;100546.88;;;25.59;33.00
29879;BME280;16752;53.364;-1.488;2023-08-07T09:54:41;100606.38;;;26.12;31.73
29879;BME280;16752;53.364;-1.488;2023-08-07T10:09:31;100646.91;;;25.68;33.55
29879;BME280;16752;53.364;-1.488;2023-08-07T10:14:59;100587.41;;;25.21;33.14
29879;BME280;16752;53.364;-1.488;2023-08-07T10:17:56;100652.72;;;25.56;32.95
29879;BME280;16752;53.364;-1.488;2023-08-07T10:23:44;100650.22;;;26.82;31.30
29879;BME280;16752;53.364;-1.488;2023-08-07T10:29:33;100510.69;;;25.20;31.66
29879;BME280;16752;53.364;-1.488;2023-08-07T10:32:20;100596.38;;;26.27;29.49
29879;BME280;16752;53.364;-1.488;2023-08-07T10:35:09;100560.50;;;26.07;29.91
29879;BME280;16752;53.364;-1.488;2023-08-07T10:37:53;100600.78;;;26.83;29.82
29879;BME280;16752;53.364;-1.488;2023-08-07T10:43:49;100544.31;;;26.69;29.75
29879;BME280;16752;53.364;-1.488;2023-08-07T10:47:00;100629.56;;;26.89;29.65
29879;BME280;16752;53.364;-1.488;2023-08-07T10:49:51;100591.66;;;27.45;28.58
29879;BME280;16752;53.364;-1.488;2023-08-07T10:52:38;100581.56;;;26.79;28.03
29879;BME280;16752;53.364;-1.488;2023-08-07T10:55:24;100646.13;;;26.51;28.37
29879;BME280;16752;53.364;-1.488;2023-08-07T10:58:22;100643.50;;;27.05;29.37
29879;BME280;16752;53.364;-1.488;2023-08-07T11:04:14;100641.28;;;26.40;28.99
29879;BME280;16752;53.364;-1.488;2023-08-07T11:06:58;100569.16;;;26.37;29.20
29879;BME280;16752;53.364;-1.488;2023-08-07T11:09:50;100555.00;;;25.87;28.75
29879;BME280;16752;53.364;-1.488;2023-08-07T11:12:41;100631.19;;;26.42;29.54
29879;BME280;16752;53.364;-1.488;2023-08-07T11:15:26;100569.09;;;25.46;30.52
29879;BME280;16752;53.364;-1.488;2023-08-07T11:18:14;100623.72;;;26.37;29.95
29879;BME280;16752;53.364;-1.488;2023-08-07T11:20:58;100635.44;;;27.05;28.27
29879;BME280;16752;53.364;-1.488;2023-08-07T11:23:46;100516.44;;;24.81;30.58
29879;BME280;16752;53.364;-1.488;2023-08-07T11:26:30;100476.00;;;25.19;30.05
29879;BME280;16752;53.364;-1.488;2023-08-07T11:29:18;100615.31;;;26.95;29.78
29879;BME280;16752;53.364;-1.488;2023-08-07T11:32:02;100519.50;;;26.74;28.88
29879;BME280;16752;53.364;-1.488;2023-08-07T11:34:59;100567.34;;;26.16;29.89
29879;BME280;16752;53.364;-1.488;2023-08-07T11:41:17;100553.34;;;26.62;28.87
29879;BME280;16752;53.364;-1.488;2023-08-07T11:44:02;100549.81;;;26.48;28.87
29879;BME280;16752;53.364;-1.488;2023-08-07T11:46:47;100555.47;;;26.73;27.87
29879;BME280;16752;53.364;-1.488;2023-08-07T11:49:42;100522.28;;;26.46;28.90
29879;BME280;16752;53.364;-1.488;2023-08-07T11:52:52;100580.78;;;26.92;28.81
29879;BME280;16752;53.364;-1.488;2023-08-07T11:55:59;100501.00;;;25.47;31.31
29879;BME280;16752;53.364;-1.488;2023-08-07T12:06:02;100637.53;;;26.06;32.04
29879;BME280;16752;53.364;-1.488;2023-08-07T12:11:49;100547.22;;;24.71;33.26
29879;BME280;16752;53.364;-1.488;2023-08-07T12:15:03;100638.38;;;26.07;32.01
29879;BME280;16752;53.364;-1.488;2023-08-07T12:32:48;100563.13;;;25.29;31.84
29879;BME280;16752;53.364;-1.488;2023-08-07T12:35:46;100556.31;;;24.55;33.81
29879;BME280;16752;53.364;-1.488;2023-08-07T12:38:33;100494.09;;;24.38;33.18
29879;BME280;16752;53.364;-1.488;2023-08-07T12:41:17;100537.94;;;25.24;32.95
29879;BME280;16752;53.364;-1.488;2023-08-07T12:44:09;100604.25;;;24.35;34.33
29879;BME280;16752;53.364;-1.488;2023-08-07T12:46:59;100568.09;;;24.75;33.40
29879;BME280;16752;53.364;-1.488;2023-08-07T12:55:10;100554.84;;;25.46;31.59
29879;BME280;16752;53.364;-1.488;2023-08-07T13:04:44;100498.63;;;25.87;29.62
29879;BME280;16752;53.364;-1.488;2023-08-07T13:07:33;100501.66;;;26.46;28.56
29879;BME280;16752;53.364;-1.488;2023-08-07T13:14:34;100542.69;;;25.71;29.43
29879;BME280;16752;53.364;-1.488;2023-08-07T13:17:18;100503.66;;;24.83;30.44
29879;BME280;16752;53.364;-1.488;2023-08-07T13:20:06;100582.69;;;25.94;29.80
29879;BME280;16752;53.364;-1.488;2023-08-07T13:22:53;100516.63;;;25.65;29.65
29879;BME280;16752;53.364;-1.488;2023-08-07T13:25:40;100508.84;;;25.70;29.12
29879;BME280;16752;53.364;-1.488;2023-08-07T13:31:34;100514.19;;;25.00;29.11
29879;BME280;16752;53.364;-1.488;2023-08-07T13:37:00;100598.59;;;26.99;27.51
29879;BME280;16752;53.364;-1.488;2023-08-07T13:40:06;100638.41;;;27.30;27.80
29879;BME280;16752;53.364;-1.488;2023-08-07T13:42:53;100636.81;;;27.56;27.49
29879;BME280;16752;53.364;-1.488;2023-08-07T13:45:39;100535.78;;;26.59;27.86
29879;BME280;16752;53.364;-1.488;2023-08-07T13:48:26;100649.16;;;27.17;28.35
29879;BME280;16752;53.364;-1.488;2023-08-07T13:51:13;100620.44;;;27.51;27.93
29879;BME280;16752;53.364;-1.488;2023-08-07T13:54:01;100539.91;;;27.16;27.64
29879;BME280;16752;53.364;-1.488;2023-08-07T13:56:45;100562.06;;;27.45;27.27
29879;BME280;16752;53.364;-1.488;2023-08-07T13:59:29;100573.47;;;27.33;28.54
29879;BME280;16752;53.364;-1.488;2023-08-07T14:02:14;100586.16;;;26.98;28.22
29879;BME280;16752;53.364;-1.488;2023-08-07T14:04:57;100631.44;;;27.56;27.90
29879;BME280;16752;53.364;-1.488;2023-08-07T14:07:41;100571.19;;;26.69;28.12
29879;BME280;16752;53.364;-1.488;2023-08-07T14:10:25;100591.81;;;27.10;28.68
29879;BME280;16752;53.364;-1.488;2023-08-07T14:13:13;100553.56;;;26.67;28.78
29879;BME280;16752;53.364;-1.488;2023-08-07T14:15:57;100588.41;;;27.62;27.49
29879;BME280;16752;53.364;-1.488;2023-08-07T14:18:41;100546.16;;;27.63;27.29
29879;BME280;16752;53.364;-1.488;2023-08-07T14:21:32;100545.63;;;28.45;25.71
29879;BME280;16752;53.364;-1.488;2023-08-07T14:24:22;100563.91;;;28.23;26.31
29879;BME280;16752;53.364;-1.488;2023-08-07T14:27:06;100549.19;;;27.07;26.99
29879;BME280;16752;53.364;-1.488;2023-08-07T14:29:54;100522.56;;;26.58;26.86
29879;BME280;16752;53.364;-1.488;2023-08-07T14:32:41;100582.28;;;25.48;28.07
29879;BME280;16752;53.364;-1.488;2023-08-07T14:39:16;100558.13;;;27.47;26.70
29879;BME280;16752;53.364;-1.488;2023-08-07T14:42:29;100506.72;;;25.94;28.47
29879;BME280;16752;53.364;-1.488;2023-08-07T14:45:14;100626.22;;;27.34;27.72
29879;BME280;16752;53.364;-1.488;2023-08-07T14:48:02;100576.94;;;27.27;26.93
29879;BME280;16752;53.364;-1.488;2023-08-07T14:50:46;100532.16;;;26.87;27.61
29879;BME280;16752;53.364;-1.488;2023-08-07T14:53:32;100551.16;;;26.85;27.21
29879;BME280;16752;53.364;-1.488;2023-08-07T14:56:16;100630.59;;;26.88;28.66
29879;BME280;16752;53.364;-1.488;2023-08-07T14:59:02;100543.44;;;26.62;27.73
29879;BME280;16752;53.364;-1.488;2023-08-07T15:04:53;100509.19;;;26.84;26.89
29879;BME280;16752;53.364;-1.488;2023-08-07T15:07:38;100543.59;;;26.13;28.61
29879;BME280;16752;53.364;-1.488;2023-08-07T15:10:22;100622.34;;;27.96;26.27
29879;BME280;16752;53.364;-1.488;2023-08-07T15:13:33;100547.91;;;26.42;27.49
29879;BME280;16752;53.364;-1.488;2023-08-07T15:22:16;100574.53;;;26.85;27.15
29879;BME280;16752;53.364;-1.488;2023-08-07T15:25:03;100494.78;;;27.31;25.56
29879;BME280;16752;53.364;-1.488;2023-08-07T15:28:05;100578.03;;;27.73;25.75
29879;BME280;16752;53.364;-1.488;2023-08-07T15:42:22;100553.25;;;29.00;24.64
29879;BME280;16752;53.364;-1.488;2023-08-07T15:45:10;100507.56;;;30.04;22.64
29879;BME280;16752;53.364;-1.488;2023-08-07T15:47:57;100543.34;;;31.33;20.56
29879;BME280;16752;53.364;-1.488;2023-08-07T15:50:49;100573.38;;;32.60;19.38
29879;BME280;16752;53.364;-1.488;2023-08-07T15:53:33;100545.72;;;29.40;22.09
29879;BME280;16752;53.364;-1.488;2023-08-07T16:02:46;100594.22;;;31.13;21.52
29879;BME280;16752;53.364;-1.488;2023-08-07T16:05:34;100522.81;;;30.17;21.60
29879;BME280;16752;53.364;-1.488;2023-08-07T16:08:19;100561.75;;;31.54;21.51
29879;BME280;16752;53.364;-1.488;2023-08-07T16:11:04;100602.53;;;29.20;23.77
29879;BME280;16752;53.364;-1.488;2023-08-07T16:13:48;100473.50;;;27.36;25.34
29879;BME280;16752;53.364;-1.488;2023-08-07T16:16:40;100571.00;;;27.98;25.50
29879;BME280;16752;53.364;-1.488;2023-08-07T16:19:24;100594.53;;;29.00;24.57
29879;BME280;16752;53.364;-1.488;2023-08-07T16:22:08;100511.34;;;27.48;25.43
29879;BME280;16752;53.364;-1.488;2023-08-07T16:25:10;100572.63;;;28.06;26.10
29879;BME280;16752;53.364;-1.488;2023-08-07T16:27:54;100553.81;;;27.66;26.91
29879;BME280;16752;53.364;-1.488;2023-08-07T16:30:39;100593.16;;;27.67;26.40
29879;BME280;16752;53.364;-1.488;2023-08-07T16:33:24;100500.78;;;27.00;27.71
29879;BME280;16752;53.364;-1.488;2023-08-07T16:36:07;100573.38;;;26.53;27.74
29879;BME280;16752;53.364;-1.488;2023-08-07T16:39:01;100570.53;;;27.22;27.36
29879;BME280;16752;53.364;-1.488;2023-08-07T16:48:08;100523.56;;;26.50;28.00
29879;BME280;16752;53.364;-1.488;2023-08-07T16:50:56;100532.63;;;25.80;29.03
29879;BME280;16752;53.364;-1.488;2023-08-07T16:53:40;100515.28;;;26.10;29.41
29879;BME280;16752;53.364;-1.488;2023-08-07T16:56:27;100531.63;;;26.15;29.25
29879;BME280;16752;53.364;-1.488;2023-08-07T16:59:14;100495.91;;;25.59;29.53
29879;BME280;16752;53.364;-1.488;2023-08-07T17:02:34;100436.31;;;25.08;29.86
29879;BME280;16752;53.364;-1.488;2023-08-07T17:08:52;100563.59;;;25.33;30.71
29879;BME280;16752;53.364;-1.488;2023-08-07T17:11:50;100413.63;;;24.67;31.47